MME weather

Durham Tees Valley Airport
Durham, England, United Kingdom

Public forecast

Using degrees Celsius for public forecast. Weather courtesy of forecast.io.

Current aviation weather report (METAR) for Durham Tees Valley Airport

Retrieved 2019/10/18 19:20 UTC (22 minutes ago):

EGNV 181920Z 17006KT 9999 FEW040 09/07 Q0994

Aviation forecast (TAF) for Durham Tees Valley Airport

Forecast is more than 12 hours old.

Retrieved 2016/01/23 12:00 UTC (4 years ago):

TAF EGNV 231059Z 2312/2321 18008KT 9999 FEW030 PROB40 2319/2321 6000 RADZ BKN014